Time;durP1;ratioP1;P1;durP2;ratioP2;P2;SDS_P1;SDS_P2;PMS_P1;PMS_P2;Temp;Humidity;BMP_temperature;BMP_pressure;BME280_temperature;BME280_humidity;BME280_pressure;Samples;Min_cycle;Max_cycle;Signal;HPM_P1;HPM_P2
2023/06/22 00:00:44;;;;;;;;;;;;;;;;;;;;;
2023/06/22 00:02:04;;;;;;;7.57;6.55;;;;;;;;;;597300;24;723;-74
2023/06/22 00:02:31;;;;;;;6.53;5.93;;;;;;;;;;597721;24;1316;-74
2023/06/22 00:02:46;;;;;;;6.00;5.50;;;;;;;;;;593562;24;1434;-74
2023/06/22 00:03:03;;;;;;;5.95;5.35;;;;;;;;;;600947;24;1525;-74
2023/06/22 00:03:20;;;;;;;6.05;5.50;;;;;;;;;;602262;24;1418;-74
2023/06/22 00:03:38;;;;;;;6.57;5.82;;;;;;;;;;602526;24;1476;-74
2023/06/22 00:03:54;;;;;;;7.35;6.25;;;;;;;;;;602448;24;1360;-74
2023/06/22 00:04:12;;;;;;;7.77;6.50;;;;;;;;;;603077;24;1370;-75
2023/06/22 00:04:31;;;;;;;7.72;6.50;;;;;;;;;;602444;24;1313;-74
2023/06/22 00:04:46;;;;;;;8.65;6.28;;;;;;;;;;597454;24;1337;-74
2023/06/22 00:05:13;;;;;;;7.97;6.20;;;;;;;;;;600593;24;1276;-74
2023/06/22 00:06:12;;;;;;;;;;;;;;;;;;;;;
2023/06/22 00:06:29;;;;;;;6.93;6.18;;;;;;;;;;604488;24;1054;-74
2023/06/22 00:06:44;;;;;;;7.25;6.55;;;;;;;;;;604330;24;1361;-74
2023/06/22 00:07:00;;;;;;;7.40;6.70;;;;;;;;;;604471;24;1277;-74
2023/06/22 00:07:18;;;;;;;7.03;6.35;;;;;;;;;;605413;24;829;-74
2023/06/22 00:07:34;;;;;;;6.38;5.88;;;;;;;;;;605095;24;1246;-74
2023/06/22 00:17:51;;;;;;;7.35;6.72;;;;;;;;;;608855;24;933;-73
2023/06/22 00:19:28;;;;;;;7.65;6.65;;;;;;;;;;599438;24;1032;-73
2023/06/22 00:19:47;;;;;;;7.80;6.90;;;;;;;;;;601039;24;1488;-74
2023/06/22 00:20:05;;;;;;;7.60;6.82;;;;;;;;;;604233;24;1138;-75
2023/06/22 00:20:27;;;;;;;7.65;6.93;;;;;;;;;;605015;24;1326;-73
2023/06/22 00:20:45;;;;;;;8.02;6.97;;;;;;;;;;602275;24;1566;-74
2023/06/22 00:21:04;;;;;;;8.07;7.00;;;;;;;;;;605073;24;1132;-74
2023/06/22 00:21:23;;;;;;;7.90;7.10;;;;;;;;;;600727;24;1350;-74
2023/06/22 00:21:39;;;;;;;7.88;7.10;;;;;;;;;;599153;24;1309;-74
2023/06/22 00:21:54;;;;;;;8.13;7.33;;;;;;;;;;602391;24;1297;-73
2023/06/22 00:22:10;;;;;;;8.15;7.40;;;;;;;;;;605104;24;1230;-74
2023/06/22 00:22:31;;;;;;;7.75;7.07;;;;;;;;;;606183;24;829;-75
2023/06/22 00:22:47;;;;;;;6.97;6.38;;;;;;;;;;609378;24;891;-74
2023/06/22 00:23:08;;;;;;;6.85;6.25;;;;;;;;;;608320;24;1336;-74
2023/06/22 00:23:24;;;;;;;6.97;6.38;;;;;;;;;;606124;24;1439;-74
2023/06/22 00:23:49;;;;;;;7.20;6.50;;;;;;;;;;605088;24;1364;-75
2023/06/22 00:24:08;;;;;;;8.25;6.50;;;;;;;;;;602682;24;1290;-74
2023/06/22 00:24:24;;;;;;;7.20;6.50;;;;;;;;;;600112;24;907;-74
2023/06/22 00:24:42;;;;;;;7.43;6.73;;;;;;;;;;600524;24;1429;-74
2023/06/22 00:24:58;;;;;;;7.47;6.78;;;;;;;;;;596850;24;1071;-74
2023/06/22 00:25:14;;;;;;;7.50;6.80;;;;;;;;;;603375;24;1219;-73
2023/06/22 00:25:32;;;;;;;7.45;6.75;;;;;;;;;;604570;24;1354;-74
2023/06/22 00:25:51;;;;;;;7.75;7.00;;;;;;;;;;602930;24;1177;-74
2023/06/22 00:26:14;;;;;;;7.60;6.90;;;;;;;;;;603384;24;1345;-74
2023/06/22 00:26:33;;;;;;;7.43;6.80;;;;;;;;;;603055;24;1353;-73
2023/06/22 00:27:30;;;;;;;7.20;6.50;;;;;;;;;;604762;24;896;-73
2023/06/22 00:28:11;;;;;;;7.30;6.63;;;;;;;;;;602143;24;931;-75
2023/06/22 00:28:28;;;;;;;6.70;6.10;;;;;;;;;;596289;24;1161;-74
2023/06/22 00:29:43;;;;;;;7.10;6.40;;;;;;;;;;597883;24;1161;-73
2023/06/22 00:30:17;;;;;;;7.80;6.97;;;;;;;;;;602537;24;1406;-74
2023/06/22 00:30:34;;;;;;;7.85;6.90;;;;;;;;;;611320;23;1341;-74
2023/06/22 00:31:12;;;;;;;7.45;6.60;;;;;;;;;;611614;23;1416;-73
2023/06/22 00:31:30;;;;;;;6.90;6.30;;;;;;;;;;608304;23;1343;-74
2023/06/22 00:31:46;;;;;;;7.18;6.50;;;;;;;;;;606029;23;1244;-74
2023/06/22 00:32:01;;;;;;;7.45;6.75;;;;;;;;;;608092;23;1348;-73
2023/06/22 00:32:18;;;;;;;7.10;6.47;;;;;;;;;;605704;23;1184;-74
2023/06/22 00:34:39;;;;;;;8.55;7.03;;;;;;;;;;597937;24;1124;-73
2023/06/22 00:34:57;;;;;;;7.82;7.07;;;;;;;;;;597043;24;1121;-73
2023/06/22 00:35:13;;;;;;;9.30;7.13;;;;;;;;;;597264;24;1356;-74
2023/06/22 00:35:32;;;;;;;7.80;6.90;;;;;;;;;;598029;24;1200;-74
2023/06/22 00:35:50;;;;;;;7.43;6.80;;;;;;;;;;597606;24;1241;-74
2023/06/22 00:36:07;;;;;;;7.15;6.55;;;;;;;;;;597901;24;1315;-73
2023/06/22 00:36:43;;;;;;;6.50;6.00;;;;;;;;;;598242;24;1331;-74
2023/06/22 00:37:08;;;;;;;7.15;6.55;;;;;;;;;;597034;24;1442;-74
2023/06/22 00:37:25;;;;;;;7.05;6.35;;;;;;;;;;597337;24;1267;-74
2023/06/22 00:37:42;;;;;;;6.88;6.28;;;;;;;;;;598027;24;1389;-73
2023/06/22 00:38:04;;;;;;;7.07;6.45;;;;;;;;;;597928;24;1295;-74
2023/06/22 00:38:29;;;;;;;7.05;6.32;;;;;;;;;;597623;24;881;-74
2023/06/22 00:38:44;;;;;;;7.07;6.47;;;;;;;;;;596767;24;1299;-74
2023/06/22 00:39:04;;;;;;;7.20;6.50;;;;;;;;;;597534;24;1364;-74
2023/06/22 00:39:42;;;;;;;;;;;;;;;;;;;;;
2023/06/22 00:40:26;;;;;;;7.55;6.85;;;;;;;;;;595662;24;1079;-74
2023/06/22 00:40:42;;;;;;;7.28;6.68;;;;;;;;;;602121;24;1621;-74
2023/06/22 00:41:22;;;;;;;7.40;6.75;;;;;;;;;;608754;23;1400;-74
2023/06/22 00:41:41;;;;;;;7.43;6.68;;;;;;;;;;608971;24;1537;-74
2023/06/22 00:41:59;;;;;;;7.72;6.53;;;;;;;;;;609606;24;1092;-74
2023/06/22 00:42:15;;;;;;;6.93;6.22;;;;;;;;;;609163;24;1324;-74
2023/06/22 00:42:31;;;;;;;7.13;6.43;;;;;;;;;;609347;24;1285;-73
2023/06/22 00:42:47;;;;;;;7.47;6.68;;;;;;;;;;609850;23;1583;-74
2023/06/22 00:43:06;;;;;;;7.60;6.80;;;;;;;;;;609888;24;1239;-74
2023/06/22 00:43:22;;;;;;;7.70;6.90;;;;;;;;;;609192;24;1377;-74
2023/06/22 00:43:53;;;;;;;;;;;;;;;;;;;;;
2023/06/22 00:44:21;;;;;;;7.60;6.90;;;;;;;;;;606665;24;1101;-74
2023/06/22 00:44:42;;;;;;;6.60;6.00;;;;;;;;;;605836;24;912;-74
2023/06/22 00:45:00;;;;;;;7.07;6.32;;;;;;;;;;608134;24;1301;-74
2023/06/22 00:45:18;;;;;;;7.67;6.87;;;;;;;;;;609503;24;891;-74
2023/06/22 00:45:34;;;;;;;7.75;6.72;;;;;;;;;;611641;23;1313;-73
2023/06/22 00:45:51;;;;;;;7.50;6.60;;;;;;;;;;609536;24;1140;-74
2023/06/22 00:46:13;;;;;;;7.25;6.60;;;;;;;;;;612739;23;1313;-74
2023/06/22 00:46:32;;;;;;;7.38;6.68;;;;;;;;;;619770;23;1474;-73
2023/06/22 00:46:48;;;;;;;7.47;6.75;;;;;;;;;;621498;23;1138;-74
2023/06/22 00:47:04;;;;;;;7.05;6.45;;;;;;;;;;620266;23;1520;-74
2023/06/22 00:47:20;;;;;;;7.28;6.57;;;;;;;;;;617620;23;1416;-75
2023/06/22 00:47:37;;;;;;;7.23;6.53;;;;;;;;;;615995;23;1250;-75
2023/06/22 00:47:57;;;;;;;7.65;6.85;;;;;;;;;;618980;23;1347;-74
2023/06/22 00:48:14;;;;;;;7.43;6.63;;;;;;;;;;618786;23;1198;-74
2023/06/22 00:48:30;;;;;;;7.63;6.93;;;;;;;;;;621138;23;1157;-73
2023/06/22 00:49:03;;;;;;;9.57;6.90;;;;;;;;;;620730;23;1478;-74
2023/06/22 00:49:22;;;;;;;7.60;7.00;;;;;;;;;;619520;23;1115;-74
2023/06/22 00:49:44;;;;;;;7.50;6.82;;;;;;;;;;616967;23;1201;-73
2023/06/22 00:50:09;;;;;;;7.57;6.80;;;;;;;;;;616488;23;1283;-74
2023/06/22 00:51:34;;;;;;;;;;;;;;;;;;;;;
2023/06/22 00:51:57;;;;;;;7.65;6.88;;;;;;;;;;617465;23;1475;-72
2023/06/22 00:52:13;;;;;;;8.27;7.03;;;;;;;;;;629491;23;1413;-74
2023/06/22 00:52:33;;;;;;;7.88;7.03;;;;;;;;;;628490;23;1443;-74
2023/06/22 00:53:09;;;;;;;7.88;7.00;;;;;;;;;;628844;23;1445;-74
2023/06/22 00:53:36;;;;;;;7.45;6.75;;;;;;;;;;628964;23;1118;-74
2023/06/22 00:54:36;;;;;;;7.78;6.97;;;;;;;;;;628482;23;1089;-75
2023/06/22 00:55:01;;;;;;;7.53;6.82;;;;;;;;;;625174;23;1266;-75
2023/06/22 00:55:54;;;;;;;7.30;6.60;;;;;;;;;;622649;23;1443;-74
2023/06/22 00:56:19;;;;;;;7.60;6.90;;;;;;;;;;623434;23;1362;-74
2023/06/22 00:56:41;;;;;;;7.40;6.70;;;;;;;;;;623063;23;1523;-74
2023/06/22 00:57:39;;;;;;;7.53;6.82;;;;;;;;;;623688;23;1437;-74
2023/06/22 00:57:56;;;;;;;8.10;6.60;;;;;;;;;;625221;23;926;-74
2023/06/22 00:58:13;;;;;;;7.63;6.13;;;;;;;;;;624675;23;1291;-74
2023/06/22 00:58:32;;;;;;;7.05;6.28;;;;;;;;;;623996;23;1282;-74
2023/06/22 00:58:48;;;;;;;6.82;6.22;;;;;;;;;;620441;23;1355;-74
2023/06/22 00:59:57;;;;;;;6.68;6.07;;;;;;;;;;617610;23;1268;-73
2023/06/22 01:00:49;;;;;;;6.72;6.18;;;;;;;;;;607989;23;1449;-74
2023/06/22 01:01:14;;;;;;;7.53;6.30;;;;;;;;;;623593;23;1203;-74
2023/06/22 01:01:30;;;;;;;7.80;6.90;;;;;;;;;;625917;23;1322;-75
2023/06/22 01:01:46;;;;;;;7.15;6.45;;;;;;;;;;622627;23;1331;-75
2023/06/22 01:02:02;;;;;;;6.78;6.18;;;;;;;;;;623858;23;1382;-75
2023/06/22 01:02:20;;;;;;;7.00;6.30;;;;;;;;;;624076;23;1370;-72
2023/06/22 01:03:10;;;;;;;6.88;6.15;;;;;;;;;;623899;23;914;-75
2023/06/22 01:03:50;;;;;;;7.00;6.05;;;;;;;;;;622915;23;1419;-73
2023/06/22 01:04:18;;;;;;;7.00;6.30;;;;;;;;;;623578;23;1442;-75
2023/06/22 01:04:36;;;;;;;6.20;5.70;;;;;;;;;;622673;23;1722;-75
2023/06/22 01:04:55;;;;;;;6.38;5.80;;;;;;;;;;620526;23;1303;-75
2023/06/22 01:05:31;;;;;;;6.85;6.13;;;;;;;;;;618387;23;1221;-75
2023/06/22 01:05:54;;;;;;;7.60;6.68;;;;;;;;;;616937;23;1295;-75
2023/06/22 01:06:27;;;;;;;6.72;6.03;;;;;;;;;;617600;23;1277;-75
2023/06/22 01:07:05;;;;;;;6.50;5.90;;;;;;;;;;618177;23;1317;-76
2023/06/22 01:07:34;;;;;;;5.97;5.47;;;;;;;;;;620111;23;1263;-74
2023/06/22 01:08:07;;;;;;;6.45;5.85;;;;;;;;;;623735;23;890;-74
2023/06/22 01:08:42;;;;;;;6.40;5.80;;;;;;;;;;623063;23;1323;-75
2023/06/22 01:09:34;;;;;;;7.00;6.40;;;;;;;;;;624944;23;1508;-75
2023/06/22 01:10:14;;;;;;;7.20;6.43;;;;;;;;;;614379;23;1491;-74
2023/06/22 01:10:44;;;;;;;6.97;6.22;;;;;;;;;;617232;23;1354;-73
2023/06/22 01:11:20;;;;;;;6.85;6.15;;;;;;;;;;623070;23;1373;-76
2023/06/22 01:12:19;;;;;;;6.63;5.97;;;;;;;;;;620615;23;1647;-75
2023/06/22 01:12:47;;;;;;;6.72;6.07;;;;;;;;;;620872;23;1343;-73
2023/06/22 01:13:24;;;;;;;6.75;6.07;;;;;;;;;;617481;23;1041;-72
2023/06/22 01:13:55;;;;;;;6.78;6.07;;;;;;;;;;620487;23;1217;-73
2023/06/22 01:14:43;;;;;;;6.80;6.05;;;;;;;;;;623590;23;1169;-74
2023/06/22 01:15:15;;;;;;;6.30;5.70;;;;;;;;;;628904;23;1443;-75
2023/06/22 01:15:37;;;;;;;6.38;5.78;;;;;;;;;;628810;23;1309;-74
2023/06/22 01:16:17;;;;;;;6.40;5.80;;;;;;;;;;625336;23;1567;-74
2023/06/22 01:16:46;;;;;;;6.45;5.78;;;;;;;;;;624118;23;1470;-75
2023/06/22 01:17:16;;;;;;;6.28;5.68;;;;;;;;;;621230;23;918;-73
2023/06/22 01:17:36;;;;;;;7.03;5.95;;;;;;;;;;622826;23;1331;-74
2023/06/22 01:18:08;;;;;;;6.90;6.00;;;;;;;;;;623517;23;1431;-75
2023/06/22 01:18:29;;;;;;;6.18;5.57;;;;;;;;;;620097;23;1386;-75
2023/06/22 01:18:50;;;;;;;6.38;5.82;;;;;;;;;;617567;23;1539;-75
2023/06/22 01:20:35;;;;;;;6.50;5.88;;;;;;;;;;623383;23;1277;-73
2023/06/22 01:20:36;;;;;;;6.80;6.20;;;;;;;;;;620752;23;1435;-75
2023/06/22 01:20:55;;;;;;;6.10;5.60;;;;;;;;;;626555;23;1450;-73
2023/06/22 01:21:25;;;;;;;6.45;5.85;;;;;;;;;;626525;23;1540;-73
2023/06/22 01:21:46;;;;;;;6.38;5.72;;;;;;;;;;626871;23;1362;-74
2023/06/22 01:22:24;;;;;;;5.90;5.30;;;;;;;;;;624231;23;1394;-75
2023/06/22 01:23:20;;;;;;;5.78;5.35;;;;;;;;;;617826;23;1473;-74
2023/06/22 01:24:02;;;;;;;6.15;5.60;;;;;;;;;;621390;23;1559;-75
2023/06/22 01:25:23;;;;;;;6.20;5.70;;;;;;;;;;623508;23;1414;-75
2023/06/22 01:26:06;;;;;;;6.30;5.70;;;;;;;;;;629882;23;1176;-75
2023/06/22 01:26:49;;;;;;;6.32;5.72;;;;;;;;;;629205;23;1507;-75
2023/06/22 01:27:22;;;;;;;6.50;5.90;;;;;;;;;;629763;23;1246;-75
2023/06/22 01:28:10;;;;;;;6.70;6.10;;;;;;;;;;626534;23;862;-75
2023/06/22 01:29:12;;;;;;;6.32;5.72;;;;;;;;;;623847;23;1595;-74
2023/06/22 01:29:38;;;;;;;6.50;5.90;;;;;;;;;;615957;23;1144;-75
2023/06/22 01:30:46;;;;;;;6.35;5.75;;;;;;;;;;624206;23;1276;-74
2023/06/22 01:31:04;;;;;;;7.72;6.00;;;;;;;;;;629788;23;1496;-75
2023/06/22 01:31:08;;;;;;;6.20;5.60;;;;;;;;;;620755;23;1450;-75
2023/06/22 01:31:29;;;;;;;6.47;5.57;;;;;;;;;;625538;23;910;-75
2023/06/22 01:31:54;;;;;;;6.70;5.97;;;;;;;;;;626625;23;1356;-75
2023/06/22 01:32:14;;;;;;;6.47;5.88;;;;;;;;;;623737;23;1354;-72
2023/06/22 01:32:44;;;;;;;6.90;6.28;;;;;;;;;;623434;23;823;-71
2023/06/22 01:33:21;;;;;;;;;;;;;;;;;;;;;
2023/06/22 01:33:42;;;;;;;6.53;5.93;;;;;;;;;;621424;23;1155;-75
2023/06/22 01:34:12;;;;;;;6.32;5.72;;;;;;;;;;620818;23;1498;-75
2023/06/22 01:34:55;;;;;;;6.05;5.45;;;;;;;;;;620140;23;1401;-75
2023/06/22 01:35:48;;;;;;;7.07;6.28;;;;;;;;;;612233;23;1214;-75
2023/06/22 01:36:05;;;;;;;6.00;5.50;;;;;;;;;;616991;23;1206;-76
2023/06/22 01:36:33;;;;;;;5.93;5.43;;;;;;;;;;625278;23;1381;-75
2023/06/22 01:36:54;;;;;;;6.18;5.57;;;;;;;;;;626416;23;1259;-75
2023/06/22 01:37:29;;;;;;;;;;;;;;;;;;;;;
2023/06/22 01:38:03;;;;;;;5.50;5.10;;;;;;;;;;630436;23;1101;-75
2023/06/22 01:38:25;;;;;;;6.20;5.60;;;;;;;;;;629063;23;1196;-75
2023/06/22 01:38:50;;;;;;;6.78;5.97;;;;;;;;;;626211;23;1445;-74
2023/06/22 01:39:25;;;;;;;6.40;5.80;;;;;;;;;;625144;23;1440;-75
2023/06/22 01:39:50;;;;;;;6.18;5.57;;;;;;;;;;624003;23;1442;-74
2023/06/22 01:40:24;;;;;;;6.43;5.80;;;;;;;;;;620175;23;1303;-75
2023/06/22 01:41:00;;;;;;;6.50;5.90;;;;;;;;;;620573;23;1299;-76
2023/06/22 01:41:20;;;;;;;6.15;5.63;;;;;;;;;;620429;23;1359;-74
2023/06/22 01:41:41;;;;;;;6.45;5.85;;;;;;;;;;622066;23;1506;-74
2023/06/22 01:42:05;;;;;;;6.93;6.22;;;;;;;;;;618565;23;1336;-75
2023/06/22 01:42:26;;;;;;;7.38;6.03;;;;;;;;;;617147;23;1394;-75
2023/06/22 01:42:43;;;;;;;6.55;5.95;;;;;;;;;;617873;23;835;-76
2023/06/22 01:43:20;;;;;;;6.63;6.00;;;;;;;;;;614557;23;1334;-75
2023/06/22 01:43:38;;;;;;;6.82;6.05;;;;;;;;;;620038;23;1384;-75
2023/06/22 01:44:50;;;;;;;6.75;6.05;;;;;;;;;;619801;23;1359;-73
2023/06/22 01:45:13;;;;;;;6.28;5.68;;;;;;;;;;606720;24;1392;-73
2023/06/22 01:45:50;;;;;;;6.63;5.63;;;;;;;;;;606416;24;1396;-75
2023/06/22 01:46:08;;;;;;;5.93;5.43;;;;;;;;;;603091;24;1472;-75
2023/06/22 01:46:26;;;;;;;6.00;5.50;;;;;;;;;;602459;24;1473;-75
2023/06/22 01:46:42;;;;;;;6.00;5.50;;;;;;;;;;603366;24;940;-74
2023/06/22 01:47:27;;;;;;;6.22;5.63;;;;;;;;;;605234;24;791;-76
2023/06/22 01:47:44;;;;;;;6.40;5.80;;;;;;;;;;607207;24;1219;-75
2023/06/22 01:48:09;;;;;;;6.15;5.63;;;;;;;;;;606084;24;1451;-74
2023/06/22 01:48:28;;;;;;;6.00;5.40;;;;;;;;;;607142;24;1432;-73
2023/06/22 01:49:04;;;;;;;5.85;5.35;;;;;;;;;;608244;24;1276;-73
2023/06/22 01:51:02;;;;;;;5.88;5.38;;;;;;;;;;600731;24;1475;-74
2023/06/22 01:51:18;;;;;;;5.95;5.38;;;;;;;;;;601051;24;1498;-72
2023/06/22 01:52:52;;;;;;;6.13;5.53;;;;;;;;;;596659;24;1051;-72
2023/06/22 01:53:24;;;;;;;6.07;5.45;;;;;;;;;;592366;24;1302;-72
2023/06/22 01:53:42;;;;;;;6.25;5.70;;;;;;;;;;594913;24;869;-73
2023/06/22 01:53:58;;;;;;;6.20;5.60;;;;;;;;;;594349;24;1291;-75
2023/06/22 01:54:23;;;;;;;6.32;5.72;;;;;;;;;;594671;24;897;-73
2023/06/22 01:55:19;;;;;;;6.20;5.60;;;;;;;;;;592661;24;1605;-74
2023/06/22 01:56:00;;;;;;;6.30;5.80;;;;;;;;;;591879;24;1010;-74
2023/06/22 01:56:26;;;;;;;5.90;5.40;;;;;;;;;;592879;24;1434;-75
2023/06/22 01:56:42;;;;;;;5.97;5.40;;;;;;;;;;594423;24;1480;-75
2023/06/22 01:57:21;;;;;;;6.22;5.63;;;;;;;;;;591827;24;1308;-75
2023/06/22 01:57:53;;;;;;;6.00;5.50;;;;;;;;;;592165;24;1406;-74
2023/06/22 01:58:35;;;;;;;6.15;5.65;;;;;;;;;;588124;24;1495;-73
2023/06/22 01:59:13;;;;;;;5.95;5.35;;;;;;;;;;590438;24;1498;-73
2023/06/22 01:59:37;;;;;;;6.30;5.70;;;;;;;;;;594730;24;1264;-74
2023/06/22 02:00:41;;;;;;;;;;;;;;;;;;;;;
2023/06/22 02:01:37;;;;;;;7.40;5.50;;;;;;;;;;587771;24;1129;-74
2023/06/22 02:02:13;;;;;;;5.80;5.30;;;;;;;;;;591997;24;1152;-74
2023/06/22 02:02:59;;;;;;;6.03;5.53;;;;;;;;;;595818;24;1458;-74
2023/06/22 02:03:21;;;;;;;6.00;5.50;;;;;;;;;;595754;24;1414;-74
2023/06/22 02:04:09;;;;;;;6.45;5.75;;;;;;;;;;594339;24;1509;-75
2023/06/22 02:05:11;;;;;;;5.85;5.35;;;;;;;;;;595469;24;1525;-73
2023/06/22 02:05:46;;;;;;;6.07;5.57;;;;;;;;;;591943;24;1519;-74
2023/06/22 02:06:08;;;;;;;6.50;5.57;;;;;;;;;;594452;24;1170;-74
2023/06/22 02:06:36;;;;;;;5.88;5.38;;;;;;;;;;596871;24;1378;-73
2023/06/22 02:07:14;;;;;;;6.20;5.70;;;;;;;;;;595435;24;1379;-75
2023/06/22 02:07:49;;;;;;;6.30;5.70;;;;;;;;;;595539;24;1272;-74
2023/06/22 02:08:31;;;;;;;6.15;5.55;;;;;;;;;;594680;24;1358;-75
2023/06/22 02:09:23;;;;;;;7.10;5.60;;;;;;;;;;596722;24;1195;-74
2023/06/22 02:10:16;;;;;;;6.20;5.60;;;;;;;;;;590660;24;1293;-74
2023/06/22 02:10:42;;;;;;;6.18;5.53;;;;;;;;;;588825;24;1123;-73
2023/06/22 02:11:06;;;;;;;6.18;5.57;;;;;;;;;;597775;24;1513;-73
2023/06/22 02:11:51;;;;;;;6.05;5.45;;;;;;;;;;595665;24;1455;-75
2023/06/22 02:12:29;;;;;;;6.13;5.53;;;;;;;;;;591697;24;1086;-74
2023/06/22 02:12:50;;;;;;;6.20;5.45;;;;;;;;;;596880;24;1256;-75
2023/06/22 02:13:16;;;;;;;8.70;5.80;;;;;;;;;;593776;24;1279;-74
2023/06/22 02:13:42;;;;;;;6.38;5.60;;;;;;;;;;593703;24;1275;-73
2023/06/22 02:13:59;;;;;;;6.30;5.80;;;;;;;;;;593458;24;841;-74
2023/06/22 02:14:16;;;;;;;6.15;5.65;;;;;;;;;;594408;24;1331;-74
2023/06/22 02:14:45;;;;;;;;;;;;;;;;;;;;;
2023/06/22 02:15:01;;;;;;;6.18;5.57;;;;;;;;;;595899;24;1069;-73
2023/06/22 02:15:29;;;;;;;5.97;5.47;;;;;;;;;;597624;24;1217;-74
2023/06/22 02:15:47;;;;;;;6.10;5.60;;;;;;;;;;594592;24;1267;-74
2023/06/22 02:16:07;;;;;;;6.30;5.70;;;;;;;;;;594825;24;1368;-72
2023/06/22 02:16:23;;;;;;;6.35;5.75;;;;;;;;;;592598;24;1402;-73
2023/06/22 02:16:42;;;;;;;6.53;5.90;;;;;;;;;;592162;24;1427;-73
2023/06/22 02:16:59;;;;;;;6.20;5.60;;;;;;;;;;592349;24;1377;-73
2023/06/22 02:17:18;;;;;;;5.95;5.45;;;;;;;;;;592305;24;838;-74
2023/06/22 02:17:34;;;;;;;6.50;5.70;;;;;;;;;;589437;24;1341;-74
2023/06/22 02:17:50;;;;;;;6.80;5.73;;;;;;;;;;591884;24;763;-74
2023/06/22 02:18:14;;;;;;;6.43;5.70;;;;;;;;;;588721;24;1067;-74
2023/06/22 02:18:40;;;;;;;6.63;5.80;;;;;;;;;;590468;24;1411;-74
2023/06/22 02:18:56;;;;;;;6.40;5.80;;;;;;;;;;588785;24;1355;-74
2023/06/22 02:19:15;;;;;;;6.70;5.97;;;;;;;;;;589022;24;901;-74
2023/06/22 02:20:25;;;;;;;6.70;6.10;;;;;;;;;;592485;24;1142;-73
2023/06/22 02:20:41;;;;;;;6.93;6.32;;;;;;;;;;594359;24;1216;-74
2023/06/22 02:20:57;;;;;;;6.93;6.23;;;;;;;;;;597208;24;1371;-75
2023/06/22 02:21:14;;;;;;;6.75;6.07;;;;;;;;;;594309;24;1322;-73
2023/06/22 02:21:31;;;;;;;6.90;6.03;;;;;;;;;;594622;24;1493;-73
2023/06/22 02:21:46;;;;;;;7.10;5.90;;;;;;;;;;594895;24;1336;-74
2023/06/22 02:22:04;;;;;;;6.63;5.97;;;;;;;;;;594504;24;1298;-73
2023/06/22 02:22:23;;;;;;;6.60;5.93;;;;;;;;;;594098;24;885;-73
2023/06/22 02:22:48;;;;;;;6.38;5.75;;;;;;;;;;588323;24;1555;-74
2023/06/22 02:23:06;;;;;;;6.68;6.07;;;;;;;;;;595082;24;1393;-74
2023/06/22 02:23:22;;;;;;;7.00;6.40;;;;;;;;;;595683;24;1600;-74
2023/06/22 02:23:37;;;;;;;7.07;6.40;;;;;;;;;;597253;24;1505;-74
2023/06/22 02:24:16;;;;;;;7.00;6.30;;;;;;;;;;596811;24;1141;-75
2023/06/22 02:24:38;;;;;;;6.70;6.10;;;;;;;;;;592295;24;1251;-75
2023/06/22 02:24:56;;;;;;;6.70;6.07;;;;;;;;;;596371;24;1124;-74
2023/06/22 02:25:29;;;;;;;7.25;6.53;;;;;;;;;;597336;24;1379;-73
2023/06/22 02:27:56;;;;;;;6.95;6.35;;;;;;;;;;594787;24;1128;-74
2023/06/22 02:28:24;;;;;;;6.82;6.22;;;;;;;;;;593387;24;1459;-74
2023/06/22 02:29:11;;;;;;;7.20;6.50;;;;;;;;;;592147;24;1296;-74
2023/06/22 02:29:51;;;;;;;6.85;6.30;;;;;;;;;;603080;24;1225;-74
2023/06/22 02:30:40;;;;;;;7.25;6.55;;;;;;;;;;617923;23;1600;-74
2023/06/22 02:30:59;;;;;;;6.90;6.20;;;;;;;;;;617102;23;1510;-73
2023/06/22 02:31:21;;;;;;;7.20;6.50;;;;;;;;;;614584;23;1383;-74
2023/06/22 02:31:46;;;;;;;6.93;6.32;;;;;;;;;;610974;23;1577;-74
2023/06/22 02:32:05;;;;;;;6.80;6.20;;;;;;;;;;608499;23;1243;-74
2023/06/22 02:32:23;;;;;;;6.70;6.20;;;;;;;;;;608278;23;1285;-74
2023/06/22 02:32:42;;;;;;;6.50;6.00;;;;;;;;;;608721;23;1334;-74
2023/06/22 02:33:00;;;;;;;7.00;6.30;;;;;;;;;;610641;23;1411;-73
2023/06/22 02:33:24;;;;;;;6.72;6.13;;;;;;;;;;615347;23;1568;-74
2023/06/22 02:33:41;;;;;;;6.80;6.20;;;;;;;;;;619830;23;1444;-73
2023/06/22 02:34:14;;;;;;;7.15;6.45;;;;;;;;;;616959;23;1357;-73
2023/06/22 02:34:30;;;;;;;7.28;6.63;;;;;;;;;;616870;23;1369;-73
2023/06/22 02:35:25;;;;;;;6.90;6.28;;;;;;;;;;614841;23;1475;-73
2023/06/22 02:36:09;;;;;;;6.78;6.18;;;;;;;;;;622275;23;1266;-74
2023/06/22 02:36:33;;;;;;;6.05;5.53;;;;;;;;;;620166;23;1269;-74
2023/06/22 02:36:52;;;;;;;6.95;6.35;;;;;;;;;;619811;23;1327;-72
2023/06/22 02:37:12;;;;;;;7.22;6.50;;;;;;;;;;620539;23;922;-72
2023/06/22 02:37:51;;;;;;;6.82;6.22;;;;;;;;;;620573;23;1182;-73
2023/06/22 02:38:13;;;;;;;6.10;5.50;;;;;;;;;;617303;23;1479;-74
2023/06/22 02:38:33;;;;;;;6.25;5.65;;;;;;;;;;615767;23;1504;-72
2023/06/22 02:38:49;;;;;;;6.40;5.85;;;;;;;;;;619860;23;1510;-72
2023/06/22 02:39:10;;;;;;;5.95;5.45;;;;;;;;;;619381;23;1348;-74
2023/06/22 02:39:41;;;;;;;6.25;5.75;;;;;;;;;;619806;23;1457;-72
2023/06/22 02:40:00;;;;;;;6.57;5.97;;;;;;;;;;615905;23;1517;-73
2023/06/22 02:40:18;;;;;;;6.57;5.97;;;;;;;;;;617083;23;1458;-73
2023/06/22 02:41:12;;;;;;;;;;;;;;;;;;;;;
2023/06/22 02:42:52;;;;;;;6.45;5.95;;;;;;;;;;611979;23;1128;-73
2023/06/22 02:43:11;;;;;;;6.40;5.80;;;;;;;;;;602336;24;1176;-74
2023/06/22 02:43:27;;;;;;;6.50;5.90;;;;;;;;;;613308;23;1366;-73
2023/06/22 02:43:42;;;;;;;6.50;5.90;;;;;;;;;;611102;23;1401;-74
2023/06/22 02:44:01;;;;;;;6.20;5.70;;;;;;;;;;608272;23;1187;-72
2023/06/22 02:45:07;;;;;;;6.20;5.60;;;;;;;;;;609727;23;867;-74
2023/06/22 02:45:28;;;;;;;6.00;5.50;;;;;;;;;;611801;23;1116;-74
2023/06/22 02:45:47;;;;;;;6.10;5.60;;;;;;;;;;611016;23;1552;-73
2023/06/22 02:46:03;;;;;;;6.18;5.60;;;;;;;;;;610156;23;1401;-73
2023/06/22 02:46:18;;;;;;;6.07;5.57;;;;;;;;;;611540;23;1407;-73
2023/06/22 02:46:35;;;;;;;6.20;5.70;;;;;;;;;;607981;23;1066;-73
2023/06/22 02:46:54;;;;;;;6.47;5.95;;;;;;;;;;607739;23;1424;-73
2023/06/22 02:47:13;;;;;;;6.28;5.78;;;;;;;;;;605426;23;1451;-73
2023/06/22 02:47:29;;;;;;;6.00;5.50;;;;;;;;;;608763;23;1268;-73
2023/06/22 02:47:45;;;;;;;6.30;5.70;;;;;;;;;;611356;23;1254;-73
2023/06/22 02:48:48;;;;;;;6.07;5.57;;;;;;;;;;608077;23;1404;-72
2023/06/22 02:49:09;;;;;;;6.30;5.80;;;;;;;;;;603635;24;1247;-73
2023/06/22 02:49:25;;;;;;;6.30;5.72;;;;;;;;;;606452;23;1488;-73
2023/06/22 02:49:41;;;;;;;6.60;6.00;;;;;;;;;;612459;23;1284;-74
2023/06/22 02:50:01;;;;;;;6.80;6.20;;;;;;;;;;615222;23;1439;-73
2023/06/22 02:50:16;;;;;;;6.60;6.00;;;;;;;;;;614030;23;1181;-75
2023/06/22 02:50:32;;;;;;;6.67;6.07;;;;;;;;;;611849;23;1237;-74
2023/06/22 02:50:51;;;;;;;6.65;6.05;;;;;;;;;;611350;23;1270;-72
2023/06/22 02:51:07;;;;;;;6.80;6.20;;;;;;;;;;608306;23;1178;-74
2023/06/22 02:51:23;;;;;;;6.80;6.10;;;;;;;;;;601746;24;1058;-74
2023/06/22 02:51:42;;;;;;;6.70;6.10;;;;;;;;;;605037;23;1560;-74
2023/06/22 02:52:01;;;;;;;6.50;5.90;;;;;;;;;;607892;23;1320;-74
2023/06/22 02:52:26;;;;;;;6.97;6.38;;;;;;;;;;610740;23;1264;-73
2023/06/22 02:53:03;;;;;;;6.82;6.20;;;;;;;;;;608439;23;1410;-74
2023/06/22 02:53:18;;;;;;;6.95;6.25;;;;;;;;;;612064;23;1173;-72
2023/06/22 02:53:34;;;;;;;7.00;6.30;;;;;;;;;;610663;23;1119;-74
2023/06/22 02:53:56;;;;;;;7.13;6.50;;;;;;;;;;607617;23;1135;-74
2023/06/22 02:54:50;;;;;;;7.00;6.30;;;;;;;;;;605878;23;1443;-74
2023/06/22 02:55:09;;;;;;;7.13;6.43;;;;;;;;;;604179;23;1484;-74
2023/06/22 02:55:27;;;;;;;6.97;6.10;;;;;;;;;;607562;23;1605;-75
2023/06/22 02:55:46;;;;;;;6.72;6.10;;;;;;;;;;608216;23;1327;-74
2023/06/22 02:56:14;;;;;;;6.70;6.15;;;;;;;;;;606672;24;1121;-74
2023/06/22 02:56:33;;;;;;;6.85;6.25;;;;;;;;;;607482;23;1237;-73
2023/06/22 02:57:13;;;;;;;7.00;6.30;;;;;;;;;;605559;24;1258;-73
2023/06/22 02:57:45;;;;;;;;;;;;;;;;;;;;;
2023/06/22 02:58:20;;;;;;;;;;;;;;;;;;;;;
2023/06/22 02:58:38;;;;;;;7.35;6.65;;;;;;;;;;614623;23;1051;-73
2023/06/22 03:00:44;;;;;;;6.80;6.20;;;;;;;;;;600604;24;1306;-75
2023/06/22 03:00:52;;;;;;;6.60;6.00;;;;;;;;;;609766;24;1302;-74
2023/06/22 03:01:24;;;;;;;6.88;6.28;;;;;;;;;;602827;24;1345;-73
2023/06/22 03:01:42;;;;;;;6.93;6.32;;;;;;;;;;602704;24;1108;-75
2023/06/22 03:01:57;;;;;;;7.28;6.60;;;;;;;;;;602965;24;1330;-74
2023/06/22 03:02:26;;;;;;;;;;;;;;;;;;;;;
2023/06/22 03:02:43;;;;;;;6.70;6.10;;;;;;;;;;605288;24;1211;-74
2023/06/22 03:02:59;;;;;;;6.80;6.20;;;;;;;;;;605457;24;1480;-74
2023/06/22 03:03:21;;;;;;;7.05;6.35;;;;;;;;;;608912;23;998;-74
2023/06/22 03:03:58;;;;;;;6.85;6.15;;;;;;;;;;606641;23;1424;-74
2023/06/22 03:05:04;;;;;;;6.78;6.13;;;;;;;;;;609295;23;764;-74
2023/06/22 03:05:19;;;;;;;7.07;6.47;;;;;;;;;;609411;23;1503;-75
2023/06/22 03:05:35;;;;;;;6.80;6.20;;;;;;;;;;621141;23;1377;-74
2023/06/22 03:05:52;;;;;;;6.35;5.85;;;;;;;;;;622101;23;915;-73
2023/06/22 03:06:08;;;;;;;6.68;6.10;;;;;;;;;;622704;23;947;-74
2023/06/22 03:06:28;;;;;;;7.00;6.40;;;;;;;;;;619857;23;1251;-74
2023/06/22 03:06:43;;;;;;;6.95;6.35;;;;;;;;;;618469;23;1030;-74
2023/06/22 03:07:00;;;;;;;7.10;6.50;;;;;;;;;;618764;23;1074;-74
2023/06/22 03:07:17;;;;;;;6.85;6.25;;;;;;;;;;618122;23;1376;-74
2023/06/22 03:07:32;;;;;;;7.40;6.70;;;;;;;;;;618465;23;1329;-74
2023/06/22 03:07:48;;;;;;;7.10;6.50;;;;;;;;;;618398;23;1007;-73
2023/06/22 03:08:03;;;;;;;7.17;6.53;;;;;;;;;;618318;23;1205;-74
2023/06/22 03:08:18;;;;;;;7.47;6.77;;;;;;;;;;618173;23;1434;-74
2023/06/22 03:08:34;;;;;;;7.88;6.65;;;;;;;;;;618931;23;1319;-74
2023/06/22 03:08:50;;;;;;;7.60;6.60;;;;;;;;;;615806;24;1267;-74